createdAt,value
2023-03-22T00:02:34.609Z,0
2023-03-22T00:07:51.928Z,0
2023-03-22T00:13:09.320Z,0
2023-03-22T00:18:26.801Z,0
2023-03-22T00:29:08.603Z,0
2023-03-22T00:34:26.021Z,0
2023-03-22T00:39:43.415Z,0
2023-03-22T00:45:18.068Z,0
2023-03-22T00:50:38.481Z,0
2023-03-22T00:55:55.895Z,0
2023-03-22T01:01:13.364Z,0
2023-03-22T01:06:30.525Z,0
2023-03-22T01:17:10.921Z,0
2023-03-22T01:22:35.628Z,0
2023-03-22T01:27:53.151Z,0
2023-03-22T01:33:10.523Z,0
2023-03-22T01:38:27.936Z,0
2023-03-22T01:43:48.332Z,0
2023-03-22T01:49:05.710Z,0
2023-03-22T01:54:23.285Z,0
2023-03-22T01:59:40.604Z,0
2023-03-22T02:04:58.109Z,0
2023-03-22T02:10:15.370Z,0
2023-03-22T02:15:32.495Z,0
2023-03-22T02:20:50.436Z,0
2023-03-22T02:26:07.732Z,0
2023-03-22T02:31:24.974Z,0
2023-03-22T02:36:42.082Z,0
2023-03-22T02:42:04.174Z,0
2023-03-22T02:47:21.574Z,0
2023-03-22T02:52:38.952Z,0
2023-03-22T02:57:56.220Z,0
2023-03-22T03:03:13.522Z,0
2023-03-22T03:08:30.813Z,0
2023-03-22T03:19:15.560Z,0
2023-03-22T03:24:33.217Z,0
2023-03-22T03:29:50.479Z,0
2023-03-22T03:35:07.783Z,0
2023-03-22T03:40:25.092Z,0
2023-03-22T03:45:42.453Z,0
2023-03-22T03:51:44.263Z,0
2023-03-22T03:57:03.953Z,0
2023-03-22T04:07:41.533Z,0
2023-03-22T04:13:00.332Z,0
2023-03-22T04:18:17.981Z,0
2023-03-22T04:23:35.258Z,0
2023-03-22T04:28:52.824Z,0
2023-03-22T04:34:10.124Z,0
2023-03-22T04:39:27.522Z,0
2023-03-22T04:44:45.158Z,0
2023-03-22T04:50:02.809Z,0
2023-03-22T04:55:22.831Z,0
2023-03-22T05:00:40.428Z,0
2023-03-22T05:05:57.968Z,0
2023-03-22T05:11:15.124Z,0
2023-03-22T05:16:32.506Z,0.9
2023-03-22T05:21:49.710Z,36.7
2023-03-22T05:27:06.754Z,77.1
2023-03-22T05:32:23.736Z,144.2
2023-03-22T05:37:40.844Z,252.9
2023-03-22T05:43:00.344Z,400
2023-03-22T05:48:18.799Z,625
2023-03-22T05:53:35.657Z,932.5
2023-03-22T05:58:58.176Z,1237.5
2023-03-22T06:04:15.376Z,1504.2
2023-03-22T06:09:32.720Z,1683.3
2023-03-22T06:14:49.788Z,2049.6
2023-03-22T06:20:06.761Z,2611.3
2023-03-22T06:25:23.905Z,4057.5
2023-03-22T06:30:41.648Z,4668.8
2023-03-22T06:35:59.234Z,4743.3
2023-03-22T06:41:16.308Z,4140.4
2023-03-22T06:46:33.228Z,5047.1
2023-03-22T06:51:50.615Z,6032.1
2023-03-22T06:57:07.482Z,5093.3
2023-03-22T07:02:24.798Z,3177.1
2023-03-22T07:18:21.927Z,6351.3
2023-03-22T07:29:03.013Z,7771.7
2023-03-22T07:34:20.551Z,9695
2023-03-22T07:39:37.850Z,9431.2
2023-03-22T07:44:57.432Z,6752.5
2023-03-22T07:50:14.240Z,5303.7
2023-03-22T07:55:30.941Z,5717.9
2023-03-22T08:00:48.087Z,8700
2023-03-22T08:06:05.477Z,13291.2
2023-03-22T08:11:23.112Z,15343.3
2023-03-22T08:16:40.617Z,9578.7
2023-03-22T08:21:57.263Z,7247.9
2023-03-22T08:27:14.962Z,7767.9
2023-03-22T08:32:31.996Z,8898.7
2023-03-22T08:38:07.102Z,10657.9
2023-03-22T08:43:23.879Z,10703.3
2023-03-22T08:48:41.169Z,14275
2023-03-22T08:53:58.308Z,12312.5
2023-03-22T08:59:15.928Z,12902.9
2023-03-22T09:04:32.585Z,14174.6
2023-03-22T09:15:09.702Z,9007.9
2023-03-22T09:20:26.293Z,9129.6
2023-03-22T09:31:03.844Z,7445.8
2023-03-22T09:36:21.199Z,13703.7
2023-03-22T09:41:38.801Z,21969.2
2023-03-22T09:46:57.351Z,31560.8
2023-03-22T09:52:16.795Z,30935
2023-03-22T09:57:34.285Z,29310
2023-03-22T10:02:50.328Z,21762.9
2023-03-22T10:08:06.516Z,15407.1
2023-03-22T10:13:25.070Z,15282.9
2023-03-22T10:18:41.974Z,17350.4
2023-03-22T10:23:59.041Z,15061.2
2023-03-22T10:29:15.899Z,15444.6
2023-03-22T10:34:33.105Z,14468.3
2023-03-22T10:39:50.200Z,16450.4
2023-03-22T10:45:07.326Z,18155
2023-03-22T10:50:24.658Z,17600
2023-03-22T10:55:58.609Z,20133.7
2023-03-22T11:01:16.472Z,14851.2
2023-03-22T11:06:33.282Z,13316.2
2023-03-22T11:11:50.239Z,14276.2
2023-03-22T11:17:07.435Z,15749.6
2023-03-22T11:22:24.567Z,18907.9
2023-03-22T11:27:41.879Z,17927.1
2023-03-22T11:32:59.225Z,19186.2
2023-03-22T11:38:17.838Z,18237.1
2023-03-22T11:43:35.626Z,15189.2
2023-03-22T11:49:01.251Z,16985.8
2023-03-22T11:54:19.107Z,20952.5
2023-03-22T11:59:36.477Z,20184.6
2023-03-22T12:04:53.694Z,18037.5
2023-03-22T12:10:10.626Z,13835.8
2023-03-22T12:15:27.064Z,9990
2023-03-22T12:20:43.637Z,12323.3
2023-03-22T12:26:00.867Z,9985
2023-03-22T12:31:20.728Z,10445
2023-03-22T12:36:38.536Z,11367.1
2023-03-22T12:41:55.494Z,12639.2
2023-03-22T12:47:34.292Z,15138.3
2023-03-22T12:52:51.647Z,16579.6
2023-03-22T12:58:08.650Z,15862.9
2023-03-22T13:03:25.903Z,16369.2
2023-03-22T13:08:43.380Z,14518.3
2023-03-22T13:14:00.126Z,14188.3
2023-03-22T13:19:16.929Z,9629.6
2023-03-22T13:24:33.336Z,7846.7
2023-03-22T13:29:50.124Z,11768.3
2023-03-22T13:35:07.332Z,10757.9
2023-03-22T13:40:41.749Z,10340
2023-03-22T13:45:59.116Z,5952.9
2023-03-22T13:51:15.963Z,5023.3
2023-03-22T14:01:54.102Z,8400.8
2023-03-22T14:07:11.139Z,6619.2
2023-03-22T14:12:28.147Z,9685.4
2023-03-22T14:17:45.651Z,9630
2023-03-22T14:54:48.433Z,10219.2
2023-03-22T15:00:06.546Z,11098.3
2023-03-22T15:05:24.057Z,9585.4
2023-03-22T15:10:41.080Z,7112.5
2023-03-22T15:15:57.781Z,6202.5
2023-03-22T15:21:14.699Z,4996.2
2023-03-22T15:26:31.652Z,5150.4
2023-03-22T15:31:48.676Z,7091.7
2023-03-22T15:37:09.305Z,7473.3
2023-03-22T15:42:26.673Z,7153.3
2023-03-22T15:47:43.743Z,6375.4
2023-03-22T15:53:00.725Z,5975.4
2023-03-22T15:58:19.344Z,6584.6
2023-03-22T16:03:37.516Z,5613.8
2023-03-22T16:08:55.508Z,5210.8
2023-03-22T16:14:12.510Z,5452.9
2023-03-22T16:19:29.506Z,4760
2023-03-22T16:24:46.307Z,4749.6
2023-03-22T16:30:03.169Z,2895.4
2023-03-22T16:35:20.024Z,2080.4
2023-03-22T16:40:36.804Z,1856.3
2023-03-22T16:45:53.600Z,1628.8
2023-03-22T16:51:10.563Z,2050.4
2023-03-22T16:56:27.926Z,1662.5
2023-03-22T17:02:06.394Z,1022.9
2023-03-22T17:07:23.741Z,1248.3
2023-03-22T17:12:40.713Z,649.2
2023-03-22T17:17:57.726Z,480
2023-03-22T17:23:14.481Z,400.8
2023-03-22T17:28:31.533Z,221.7
2023-03-22T17:33:48.551Z,169.6
2023-03-22T17:39:20.935Z,142.5
2023-03-22T17:44:49.313Z,78.7
2023-03-22T17:50:06.718Z,61.7
2023-03-22T17:55:35.008Z,35
2023-03-22T18:01:06.008Z,19.6
2023-03-22T18:06:25.974Z,0.5
2023-03-22T18:11:45.944Z,2.3
2023-03-22T18:17:03.398Z,0.9
2023-03-22T18:22:20.703Z,0.3
2023-03-22T18:27:45.988Z,0
2023-03-22T18:33:12.166Z,0
2023-03-22T18:38:56.491Z,0
2023-03-22T18:44:27.760Z,0
2023-03-22T18:49:44.827Z,0
2023-03-22T18:55:15.588Z,0
2023-03-22T19:00:47.174Z,0
2023-03-22T19:11:27.659Z,0
2023-03-22T19:16:45.095Z,0
2023-03-22T19:22:09.693Z,0
2023-03-22T19:27:29.093Z,0
2023-03-22T19:33:02.363Z,0
2023-03-22T19:38:50.829Z,0
2023-03-22T19:44:08.148Z,0
2023-03-22T19:49:25.495Z,0
2023-03-22T19:54:45.325Z,0
2023-03-22T20:00:44.819Z,0
2023-03-22T20:06:03.498Z,0
2023-03-22T20:11:27.699Z,0
2023-03-22T20:16:51.574Z,0
2023-03-22T20:22:13.895Z,0
2023-03-22T20:27:31.298Z,0
2023-03-22T20:32:49.181Z,0
2023-03-22T20:38:10.137Z,0
2023-03-22T20:43:27.600Z,0
2023-03-22T20:48:45.063Z,0
2023-03-22T20:54:02.558Z,0
2023-03-22T20:59:20.302Z,0
2023-03-22T21:04:38.291Z,0
2023-03-22T21:09:55.711Z,0
2023-03-22T21:15:13.095Z,0
2023-03-22T21:20:37.535Z,0
2023-03-22T21:25:54.973Z,0
2023-03-22T21:31:15.429Z,0
2023-03-22T21:36:33.038Z,0
2023-03-22T21:41:50.605Z,0
2023-03-22T21:47:07.783Z,0
2023-03-22T21:52:25.713Z,0
2023-03-22T21:57:43.090Z,0
2023-03-22T22:03:00.818Z,0
2023-03-22T22:08:20.428Z,0
2023-03-22T22:13:38.519Z,0
2023-03-22T22:18:58.022Z,0
2023-03-22T22:24:15.633Z,0
2023-03-22T22:29:33.108Z,0
2023-03-22T22:34:50.508Z,0
2023-03-22T22:40:07.845Z,0
2023-03-22T22:45:28.252Z,0
2023-03-22T22:50:45.380Z,0
2023-03-22T22:56:03.108Z,0
2023-03-22T23:01:20.455Z,0
2023-03-22T23:06:45.116Z,0
2023-03-22T23:12:02.578Z,0
2023-03-22T23:17:20.346Z,0
2023-03-22T23:22:55.881Z,0
2023-03-22T23:28:13.528Z,0
2023-03-22T23:33:30.812Z,0
2023-03-22T23:38:48.387Z,0
2023-03-22T23:44:05.804Z,0
2023-03-22T23:49:23.104Z,0
2023-03-22T23:54:40.472Z,0
